sensor_id;sensor_type;location;lat;lon;timestamp;pressure;altitude;pressure_sealevel;temperature;humidity
32733;BME280;11867;51.198;11.966;2023-09-30T00:00:11;101075.19;;;18.24;93.12
32733;BME280;11867;51.198;11.966;2023-09-30T00:01:33;101076.63;;;18.44;92.38
32733;BME280;11867;51.198;11.966;2023-09-30T00:02:56;101071.41;;;18.43;92.03
32733;BME280;11867;51.198;11.966;2023-09-30T00:04:19;101078.69;;;18.39;91.99
32733;BME280;11867;51.198;11.966;2023-09-30T00:05:42;101080.25;;;18.31;92.16
32733;BME280;11867;51.198;11.966;2023-09-30T00:07:05;101086.03;;;18.21;92.60
32733;BME280;11867;51.198;11.966;2023-09-30T00:08:28;101088.28;;;18.19;92.56
32733;BME280;11867;51.198;11.966;2023-09-30T00:09:52;101094.69;;;18.05;91.98
32733;BME280;11867;51.198;11.966;2023-09-30T00:11:15;101093.34;;;17.80;93.49
32733;BME280;11867;51.198;11.966;2023-09-30T00:12:38;101093.44;;;17.89;93.12
32733;BME280;11867;51.198;11.966;2023-09-30T00:14:02;101104.84;;;18.19;91.57
32733;BME280;11867;51.198;11.966;2023-09-30T00:15:24;101110.25;;;18.24;91.75
32733;BME280;11867;51.198;11.966;2023-09-30T00:16:47;101105.44;;;18.29;90.63
32733;BME280;11867;51.198;11.966;2023-09-30T00:18:09;101115.97;;;18.05;90.56
32733;BME280;11867;51.198;11.966;2023-09-30T00:19:33;101119.47;;;17.97;91.37
32733;BME280;11867;51.198;11.966;2023-09-30T00:20:55;101118.72;;;18.05;90.55
32733;BME280;11867;51.198;11.966;2023-09-30T00:22:19;101120.31;;;18.20;89.32
32733;BME280;11867;51.198;11.966;2023-09-30T00:23:41;101137.72;;;18.06;88.71
32733;BME280;11867;51.198;11.966;2023-09-30T00:25:07;101120.59;;;17.82;89.01
32733;BME280;11867;51.198;11.966;2023-09-30T00:26:29;101119.00;;;17.67;89.37
32733;BME280;11867;51.198;11.966;2023-09-30T00:27:52;101120.84;;;17.71;89.63
32733;BME280;11867;51.198;11.966;2023-09-30T00:29:14;101126.63;;;17.84;88.55
32733;BME280;11867;51.198;11.966;2023-09-30T00:30:37;101134.88;;;17.98;88.46
32733;BME280;11867;51.198;11.966;2023-09-30T00:32:00;101133.63;;;18.04;87.35
32733;BME280;11867;51.198;11.966;2023-09-30T00:33:23;101120.59;;;17.82;87.82
32733;BME280;11867;51.198;11.966;2023-09-30T00:34:45;101130.53;;;17.69;87.71
32733;BME280;11867;51.198;11.966;2023-09-30T00:36:09;101142.97;;;17.94;87.70
32733;BME280;11867;51.198;11.966;2023-09-30T00:37:31;101130.50;;;17.97;86.70
32733;BME280;11867;51.198;11.966;2023-09-30T00:38:54;101133.63;;;18.04;86.82
32733;BME280;11867;51.198;11.966;2023-09-30T00:40:18;101123.56;;;17.85;85.92
32733;BME280;11867;51.198;11.966;2023-09-30T00:41:42;101133.88;;;17.93;85.16
32733;BME280;11867;51.198;11.966;2023-09-30T00:43:04;101132.56;;;17.77;85.18
32733;BME280;11867;51.198;11.966;2023-09-30T00:44:27;101135.00;;;17.79;85.31
32733;BME280;11867;51.198;11.966;2023-09-30T00:45:51;101125.81;;;17.83;85.14
32733;BME280;11867;51.198;11.966;2023-09-30T00:47:19;101126.34;;;17.85;83.66
32733;BME280;11867;51.198;11.966;2023-09-30T00:48:43;101132.75;;;17.81;84.20
32733;BME280;11867;51.198;11.966;2023-09-30T00:50:07;101143.91;;;17.89;83.39
32733;BME280;11867;51.198;11.966;2023-09-30T00:51:32;101141.34;;;17.79;83.78
32733;BME280;11867;51.198;11.966;2023-09-30T00:52:56;101142.47;;;17.78;83.29
32733;BME280;11867;51.198;11.966;2023-09-30T00:54:18;101140.03;;;17.90;82.96
32733;BME280;11867;51.198;11.966;2023-09-30T00:55:43;101147.75;;;18.02;81.71
32733;BME280;11867;51.198;11.966;2023-09-30T00:57:06;101156.13;;;18.11;82.28
32733;BME280;11867;51.198;11.966;2023-09-30T00:58:29;101149.16;;;18.13;81.63
32733;BME280;11867;51.198;11.966;2023-09-30T00:59:52;101146.97;;;18.24;80.93
32733;BME280;11867;51.198;11.966;2023-09-30T01:01:16;101162.84;;;18.41;80.89
32733;BME280;11867;51.198;11.966;2023-09-30T01:02:39;101164.47;;;18.20;80.33
32733;BME280;11867;51.198;11.966;2023-09-30T01:04:03;101169.78;;;18.16;80.70
32733;BME280;11867;51.198;11.966;2023-09-30T01:05:26;101160.22;;;18.00;80.77
32733;BME280;11867;51.198;11.966;2023-09-30T01:06:49;101167.91;;;17.89;81.24
32733;BME280;11867;51.198;11.966;2023-09-30T01:08:11;101172.41;;;17.71;82.61
32733;BME280;11867;51.198;11.966;2023-09-30T01:09:34;101174.06;;;17.44;83.56
32733;BME280;11867;51.198;11.966;2023-09-30T01:10:59;101161.59;;;17.61;83.55
32733;BME280;11867;51.198;11.966;2023-09-30T01:12:23;101168.16;;;17.51;83.54
32733;BME280;11867;51.198;11.966;2023-09-30T01:13:45;101166.94;;;17.57;83.48
32733;BME280;11867;51.198;11.966;2023-09-30T01:15:09;101173.63;;;17.65;83.37
32733;BME280;11867;51.198;11.966;2023-09-30T01:16:32;101169.44;;;17.81;82.88
32733;BME280;11867;51.198;11.966;2023-09-30T01:17:55;101169.13;;;17.69;83.00
32733;BME280;11867;51.198;11.966;2023-09-30T01:19:17;101168.31;;;17.82;82.69
32733;BME280;11867;51.198;11.966;2023-09-30T01:20:40;101169.25;;;17.64;83.71
32733;BME280;11867;51.198;11.966;2023-09-30T01:22:06;101177.84;;;17.62;83.90
32733;BME280;11867;51.198;11.966;2023-09-30T01:23:31;101183.25;;;17.53;84.00
32733;BME280;11867;51.198;11.966;2023-09-30T01:24:55;101183.66;;;17.61;83.79
32733;BME280;11867;51.198;11.966;2023-09-30T01:26:17;101188.16;;;17.57;84.10
32733;BME280;11867;51.198;11.966;2023-09-30T01:27:40;101181.09;;;17.50;84.55
32733;BME280;11867;51.198;11.966;2023-09-30T01:29:02;101176.72;;;17.49;84.43
32733;BME280;11867;51.198;11.966;2023-09-30T01:30:25;101189.59;;;17.68;83.77
32733;BME280;11867;51.198;11.966;2023-09-30T01:31:48;101187.34;;;17.70;84.28
32733;BME280;11867;51.198;11.966;2023-09-30T01:33:11;101196.50;;;17.79;83.65
32733;BME280;11867;51.198;11.966;2023-09-30T01:34:34;101194.06;;;17.91;83.21
32733;BME280;11867;51.198;11.966;2023-09-30T01:35:58;101186.06;;;18.04;82.49
32733;BME280;11867;51.198;11.966;2023-09-30T01:37:26;101183.59;;;18.16;81.79
32733;BME280;11867;51.198;11.966;2023-09-30T01:38:49;101179.56;;;18.22;81.39
32733;BME280;11867;51.198;11.966;2023-09-30T01:40:16;101195.41;;;18.30;81.44
32733;BME280;11867;51.198;11.966;2023-09-30T01:41:40;101202.28;;;18.42;81.06
32733;BME280;11867;51.198;11.966;2023-09-30T01:43:03;101195.53;;;18.48;81.03
32733;BME280;11867;51.198;11.966;2023-09-30T01:44:25;101206.56;;;18.48;80.95
32733;BME280;11867;51.198;11.966;2023-09-30T01:45:49;101199.31;;;18.29;80.93
32733;BME280;11867;51.198;11.966;2023-09-30T01:47:11;101199.94;;;18.12;81.80
32733;BME280;11867;51.198;11.966;2023-09-30T01:48:34;101206.69;;;18.06;81.62
32733;BME280;11867;51.198;11.966;2023-09-30T01:49:57;101215.09;;;18.15;81.11
32733;BME280;11867;51.198;11.966;2023-09-30T01:51:21;101215.25;;;18.19;80.84
32733;BME280;11867;51.198;11.966;2023-09-30T01:52:45;101219.81;;;18.01;81.57
32733;BME280;11867;51.198;11.966;2023-09-30T01:54:08;101221.22;;;17.98;80.79
32733;BME280;11867;51.198;11.966;2023-09-30T01:55:30;101225.94;;;17.84;81.38
32733;BME280;11867;51.198;11.966;2023-09-30T01:56:53;101218.97;;;17.59;82.00
32733;BME280;11867;51.198;11.966;2023-09-30T01:58:15;101224.13;;;17.65;81.88
32733;BME280;11867;51.198;11.966;2023-09-30T01:59:39;101221.66;;;17.64;81.64
32733;BME280;11867;51.198;11.966;2023-09-30T02:01:02;101223.69;;;17.58;81.49
32733;BME280;11867;51.198;11.966;2023-09-30T02:02:26;101222.47;;;17.50;81.62
32733;BME280;11867;51.198;11.966;2023-09-30T02:03:48;101228.09;;;17.45;81.92
32733;BME280;11867;51.198;11.966;2023-09-30T02:05:11;101218.91;;;17.64;80.98
32733;BME280;11867;51.198;11.966;2023-09-30T02:06:33;101232.47;;;17.60;81.44
32733;BME280;11867;51.198;11.966;2023-09-30T02:07:59;101232.56;;;17.69;80.82
32733;BME280;11867;51.198;11.966;2023-09-30T02:09:21;101240.94;;;17.50;81.15
32733;BME280;11867;51.198;11.966;2023-09-30T02:10:44;101235.13;;;17.38;81.07
32733;BME280;11867;51.198;11.966;2023-09-30T02:12:06;101233.06;;;17.29;81.50
32733;BME280;11867;51.198;11.966;2023-09-30T02:13:31;101228.75;;;17.23;81.69
32733;BME280;11867;51.198;11.966;2023-09-30T02:14:53;101236.22;;;17.23;81.79
32733;BME280;11867;51.198;11.966;2023-09-30T02:16:17;101231.13;;;17.16;81.80
32733;BME280;11867;51.198;11.966;2023-09-30T02:17:39;101238.25;;;17.03;82.03
32733;BME280;11867;51.198;11.966;2023-09-30T02:19:07;101245.38;;;17.04;82.49
32733;BME280;11867;51.198;11.966;2023-09-30T02:20:33;101245.91;;;17.20;81.85
32733;BME280;11867;51.198;11.966;2023-09-30T02:21:56;101250.69;;;17.14;81.81
32733;BME280;11867;51.198;11.966;2023-09-30T02:23:19;101258.63;;;17.02;82.19
32733;BME280;11867;51.198;11.966;2023-09-30T02:24:45;101253.16;;;16.83;82.68
32733;BME280;11867;51.198;11.966;2023-09-30T02:26:07;101255.78;;;17.07;81.83
32733;BME280;11867;51.198;11.966;2023-09-30T02:27:30;101258.91;;;16.87;82.09
32733;BME280;11867;51.198;11.966;2023-09-30T02:28:52;101257.03;;;16.82;82.62
32733;BME280;11867;51.198;11.966;2023-09-30T02:30:16;101248.75;;;16.63;83.44
32733;BME280;11867;51.198;11.966;2023-09-30T02:31:39;101259.25;;;16.61;83.41
32733;BME280;11867;51.198;11.966;2023-09-30T02:33:03;101260.28;;;16.65;83.23
32733;BME280;11867;51.198;11.966;2023-09-30T02:34:26;101252.81;;;16.52;83.25
32733;BME280;11867;51.198;11.966;2023-09-30T02:35:49;101260.75;;;16.34;83.82
32733;BME280;11867;51.198;11.966;2023-09-30T02:37:11;101258.38;;;16.47;84.15
32733;BME280;11867;51.198;11.966;2023-09-30T02:38:36;101255.75;;;16.37;84.77
32733;BME280;11867;51.198;11.966;2023-09-30T02:39:59;101261.34;;;16.50;83.58
32733;BME280;11867;51.198;11.966;2023-09-30T02:41:22;101264.34;;;16.54;83.25
32733;BME280;11867;51.198;11.966;2023-09-30T02:42:44;101260.28;;;16.65;83.00
32733;BME280;11867;51.198;11.966;2023-09-30T02:44:07;101270.63;;;16.73;82.15
32733;BME280;11867;51.198;11.966;2023-09-30T02:45:29;101274.72;;;16.76;82.14
32733;BME280;11867;51.198;11.966;2023-09-30T02:46:53;101279.78;;;16.88;81.59
32733;BME280;11867;51.198;11.966;2023-09-30T02:48:15;101275.22;;;16.78;81.58
32733;BME280;11867;51.198;11.966;2023-09-30T02:49:39;101286.56;;;16.77;82.03
32733;BME280;11867;51.198;11.966;2023-09-30T02:51:01;101283.28;;;16.74;81.93
32733;BME280;11867;51.198;11.966;2023-09-30T02:52:24;101279.41;;;16.75;81.76
32733;BME280;11867;51.198;11.966;2023-09-30T02:53:48;101273.91;;;16.94;80.74
32733;BME280;11867;51.198;11.966;2023-09-30T02:55:12;101286.72;;;16.85;81.20
32733;BME280;11867;51.198;11.966;2023-09-30T02:56:34;101279.78;;;16.88;81.29
32733;BME280;11867;51.198;11.966;2023-09-30T02:57:58;101282.38;;;16.79;81.49
32733;BME280;11867;51.198;11.966;2023-09-30T02:59:22;101284.84;;;16.62;82.81
32733;BME280;11867;51.198;11.966;2023-09-30T03:00:47;101279.19;;;16.53;82.70
32733;BME280;11867;51.198;11.966;2023-09-30T03:02:10;101288.41;;;16.43;82.63
32733;BME280;11867;51.198;11.966;2023-09-30T03:03:33;101284.94;;;16.57;82.47
32733;BME280;11867;51.198;11.966;2023-09-30T03:04:55;101302.78;;;16.59;82.21
32733;BME280;11867;51.198;11.966;2023-09-30T03:06:20;101299.06;;;16.50;82.81
32733;BME280;11867;51.198;11.966;2023-09-30T03:07:42;101303.97;;;16.53;82.28
32733;BME280;11867;51.198;11.966;2023-09-30T03:09:07;101303.31;;;16.61;81.83
32733;BME280;11867;51.198;11.966;2023-09-30T03:10:31;101291.91;;;16.68;80.92
32733;BME280;11867;51.198;11.966;2023-09-30T03:11:54;101290.34;;;16.62;80.84
32733;BME280;11867;51.198;11.966;2023-09-30T03:13:18;101301.00;;;16.68;80.36
32733;BME280;11867;51.198;11.966;2023-09-30T03:14:43;101301.59;;;16.65;80.94
32733;BME280;11867;51.198;11.966;2023-09-30T03:16:06;101292.81;;;16.63;80.78
32733;BME280;11867;51.198;11.966;2023-09-30T03:17:30;101282.63;;;16.26;81.88
32733;BME280;11867;51.198;11.966;2023-09-30T03:18:52;101299.94;;;16.45;81.58
32733;BME280;11867;51.198;11.966;2023-09-30T03:20:17;101303.59;;;16.41;81.96
32733;BME280;11867;51.198;11.966;2023-09-30T03:21:41;101298.22;;;16.49;81.24
32733;BME280;11867;51.198;11.966;2023-09-30T03:23:05;101294.28;;;16.55;80.74
32733;BME280;11867;51.198;11.966;2023-09-30T03:24:28;101292.19;;;16.28;81.97
32733;BME280;11867;51.198;11.966;2023-09-30T03:25:51;101300.03;;;16.40;81.39
32733;BME280;11867;51.198;11.966;2023-09-30T03:27:13;101303.81;;;16.44;81.01
32733;BME280;11867;51.198;11.966;2023-09-30T03:28:37;101299.41;;;16.43;81.48
32733;BME280;11867;51.198;11.966;2023-09-30T03:29:59;101300.56;;;16.42;81.58
32733;BME280;11867;51.198;11.966;2023-09-30T03:31:23;101300.97;;;16.30;81.76
32733;BME280;11867;51.198;11.966;2023-09-30T03:32:45;101302.53;;;16.37;81.88
32733;BME280;11867;51.198;11.966;2023-09-30T03:34:08;101297.13;;;16.31;82.05
32733;BME280;11867;51.198;11.966;2023-09-30T03:35:30;101308.00;;;16.42;81.46
32733;BME280;11867;51.198;11.966;2023-09-30T03:36:54;101317.63;;;16.20;82.25
32733;BME280;11867;51.198;11.966;2023-09-30T03:38:20;101308.13;;;16.31;81.84
32733;BME280;11867;51.198;11.966;2023-09-30T03:39:45;101317.09;;;16.18;81.98
32733;BME280;11867;51.198;11.966;2023-09-30T03:41:11;101318.66;;;16.24;82.27
32733;BME280;11867;51.198;11.966;2023-09-30T03:42:35;101315.25;;;16.32;81.63
32733;BME280;11867;51.198;11.966;2023-09-30T03:43:58;101313.41;;;16.28;81.86
32733;BME280;11867;51.198;11.966;2023-09-30T03:45:20;101308.28;;;16.21;82.07
32733;BME280;11867;51.198;11.966;2023-09-30T03:46:44;101305.66;;;16.30;81.46
32733;BME280;11867;51.198;11.966;2023-09-30T03:48:06;101306.84;;;16.24;81.68
32733;BME280;11867;51.198;11.966;2023-09-30T03:49:29;101305.47;;;16.02;82.80
32733;BME280;11867;51.198;11.966;2023-09-30T03:50:52;101307.91;;;16.04;82.75
32733;BME280;11867;51.198;11.966;2023-09-30T03:52:15;101297.28;;;15.97;81.68
32733;BME280;11867;51.198;11.966;2023-09-30T03:53:37;101310.06;;;15.88;82.11
32733;BME280;11867;51.198;11.966;2023-09-30T03:55:02;101317.31;;;16.03;82.13
32733;BME280;11867;51.198;11.966;2023-09-30T03:56:26;101309.44;;;15.91;82.28
32733;BME280;11867;51.198;11.966;2023-09-30T03:57:50;101317.66;;;15.96;81.94
32733;BME280;11867;51.198;11.966;2023-09-30T03:59:13;101313.25;;;15.95;81.74
32733;BME280;11867;51.198;11.966;2023-09-30T04:00:37;101321.56;;;16.14;81.36
32733;BME280;11867;51.198;11.966;2023-09-30T04:02:01;101327.00;;;15.95;81.93
32733;BME280;11867;51.198;11.966;2023-09-30T04:03:24;101327.91;;;15.90;81.94
32733;BME280;11867;51.198;11.966;2023-09-30T04:04:47;101331.22;;;15.87;82.67
32733;BME280;11867;51.198;11.966;2023-09-30T04:06:13;101329.41;;;16.02;81.81
32733;BME280;11867;51.198;11.966;2023-09-30T04:07:35;101321.88;;;15.88;82.27
32733;BME280;11867;51.198;11.966;2023-09-30T04:08:58;101324.81;;;14.70;88.08
32733;BME280;11867;51.198;11.966;2023-09-30T04:10:23;101310.84;;;14.61;89.37
32733;BME280;11867;51.198;11.966;2023-09-30T04:11:45;101323.47;;;15.02;88.21
32733;BME280;11867;51.198;11.966;2023-09-30T04:13:11;101322.63;;;15.06;88.22
32733;BME280;11867;51.198;11.966;2023-09-30T04:14:33;101315.53;;;15.29;86.83
32733;BME280;11867;51.198;11.966;2023-09-30T04:15:56;101309.66;;;15.12;87.26
32733;BME280;11867;51.198;11.966;2023-09-30T04:17:20;101309.81;;;14.91;88.06
32733;BME280;11867;51.198;11.966;2023-09-30T04:18:45;101318.59;;;14.93;88.55
32733;BME280;11867;51.198;11.966;2023-09-30T04:20:09;101319.41;;;15.28;87.36
32733;BME280;11867;51.198;11.966;2023-09-30T04:21:38;101317.03;;;15.17;87.02
32733;BME280;11867;51.198;11.966;2023-09-30T04:23:02;101321.25;;;15.09;87.55
32733;BME280;11867;51.198;11.966;2023-09-30T04:24:24;101328.16;;;14.57;89.74
32733;BME280;11867;51.198;11.966;2023-09-30T04:25:48;101313.44;;;13.67;94.23
32733;BME280;11867;51.198;11.966;2023-09-30T04:27:12;101329.63;;;13.32;97.72
32733;BME280;11867;51.198;11.966;2023-09-30T04:28:34;101323.88;;;12.98;99.68
32733;BME280;11867;51.198;11.966;2023-09-30T04:29:57;101334.81;;;12.98;100.00
32733;BME280;11867;51.198;11.966;2023-09-30T04:31:19;101330.44;;;13.12;100.00
32733;BME280;11867;51.198;11.966;2023-09-30T04:32:43;101337.00;;;13.11;99.62
32733;BME280;11867;51.198;11.966;2023-09-30T04:34:06;101335.34;;;13.05;100.00
32733;BME280;11867;51.198;11.966;2023-09-30T04:35:29;101332.66;;;13.36;99.53
32733;BME280;11867;51.198;11.966;2023-09-30T04:36:52;101337.28;;;13.51;97.26
32733;BME280;11867;51.198;11.966;2023-09-30T04:38:16;101338.06;;;13.77;96.36
32733;BME280;11867;51.198;11.966;2023-09-30T04:39:38;101330.59;;;13.93;94.71
32733;BME280;11867;51.198;11.966;2023-09-30T04:41:03;101335.34;;;13.67;95.73
32733;BME280;11867;51.198;11.966;2023-09-30T04:42:29;101337.84;;;13.27;98.38
32733;BME280;11867;51.198;11.966;2023-09-30T04:43:51;101332.63;;;13.26;99.27
32733;BME280;11867;51.198;11.966;2023-09-30T04:45:14;101330.44;;;13.48;97.82
32733;BME280;11867;51.198;11.966;2023-09-30T04:46:38;101330.97;;;13.61;97.29
32733;BME280;11867;51.198;11.966;2023-09-30T04:48:03;101324.94;;;13.53;97.28
32733;BME280;11867;51.198;11.966;2023-09-30T04:49:26;101326.03;;;13.58;97.06
32733;BME280;11867;51.198;11.966;2023-09-30T04:50:49;101328.22;;;13.66;95.76
32733;BME280;11867;51.198;11.966;2023-09-30T04:52:11;101334.31;;;13.32;97.69
32733;BME280;11867;51.198;11.966;2023-09-30T04:53:34;101337.56;;;13.24;98.50
32733;BME280;11867;51.198;11.966;2023-09-30T04:54:57;101337.81;;;13.12;99.38
32733;BME280;11867;51.198;11.966;2023-09-30T04:56:23;101336.19;;;13.26;99.00
32733;BME280;11867;51.198;11.966;2023-09-30T04:57:46;101337.31;;;13.41;97.84
32733;BME280;11867;51.198;11.966;2023-09-30T04:59:10;101343.06;;;13.44;96.92
32733;BME280;11867;51.198;11.966;2023-09-30T05:00:33;101342.25;;;13.44;98.24
32733;BME280;11867;51.198;11.966;2023-09-30T05:01:57;101341.63;;;13.78;96.13
32733;BME280;11867;51.198;11.966;2023-09-30T05:03:20;101339.41;;;13.90;94.99
32733;BME280;11867;51.198;11.966;2023-09-30T05:04:43;101350.66;;;13.78;94.76
32733;BME280;11867;51.198;11.966;2023-09-30T05:06:06;101350.13;;;13.81;93.87
32733;BME280;11867;51.198;11.966;2023-09-30T05:07:29;101358.34;;;13.81;94.05
32733;BME280;11867;51.198;11.966;2023-09-30T05:08:52;101363.25;;;13.84;93.68
32733;BME280;11867;51.198;11.966;2023-09-30T05:10:17;101350.41;;;13.80;94.68
32733;BME280;11867;51.198;11.966;2023-09-30T05:11:40;101357.69;;;14.15;92.42
32733;BME280;11867;51.198;11.966;2023-09-30T05:13:03;101351.56;;;14.39;91.23
32733;BME280;11867;51.198;11.966;2023-09-30T05:14:25;101357.63;;;14.36;90.44
32733;BME280;11867;51.198;11.966;2023-09-30T05:15:51;101350.59;;;14.09;93.26
32733;BME280;11867;51.198;11.966;2023-09-30T05:17:13;101353.78;;;14.31;93.42
32733;BME280;11867;51.198;11.966;2023-09-30T05:18:37;101357.81;;;14.60;91.08
32733;BME280;11867;51.198;11.966;2023-09-30T05:20:00;101357.38;;;14.87;89.18
32733;BME280;11867;51.198;11.966;2023-09-30T05:21:23;101358.38;;;15.01;88.49
32733;BME280;11867;51.198;11.966;2023-09-30T05:22:45;101362.38;;;15.14;87.20
32733;BME280;11867;51.198;11.966;2023-09-30T05:24:11;101363.47;;;15.18;87.05
32733;BME280;11867;51.198;11.966;2023-09-30T05:25:33;101367.81;;;15.24;86.95
32733;BME280;11867;51.198;11.966;2023-09-30T05:26:57;101365.06;;;15.24;86.87
32733;BME280;11867;51.198;11.966;2023-09-30T05:28:20;101369.22;;;15.17;87.69
32733;BME280;11867;51.198;11.966;2023-09-30T05:29:43;101374.66;;;14.87;89.14
32733;BME280;11867;51.198;11.966;2023-09-30T05:31:05;101377.00;;;15.09;87.72
32733;BME280;11867;51.198;11.966;2023-09-30T05:32:29;101365.94;;;15.20;86.82
32733;BME280;11867;51.198;11.966;2023-09-30T05:33:51;101384.03;;;15.21;87.03
32733;BME280;11867;51.198;11.966;2023-09-30T05:35:14;101380.34;;;15.36;86.33
32733;BME280;11867;51.198;11.966;2023-09-30T05:36:39;101392.06;;;15.12;87.01
32733;BME280;11867;51.198;11.966;2023-09-30T05:38:04;101397.50;;;15.22;86.08
32733;BME280;11867;51.198;11.966;2023-09-30T05:39:28;101406.09;;;15.10;86.43
32733;BME280;11867;51.198;11.966;2023-09-30T05:40:51;101406.22;;;14.90;86.49
32733;BME280;11867;51.198;11.966;2023-09-30T05:42:16;101399.69;;;14.81;87.30
32733;BME280;11867;51.198;11.966;2023-09-30T05:43:38;101400.34;;;14.62;88.52
32733;BME280;11867;51.198;11.966;2023-09-30T05:45:01;101408.22;;;13.93;93.04
32733;BME280;11867;51.198;11.966;2023-09-30T05:46:23;101402.16;;;14.12;95.63
32733;BME280;11867;51.198;11.966;2023-09-30T05:47:47;101400.47;;;14.26;92.87
32733;BME280;11867;51.198;11.966;2023-09-30T05:49:13;101391.94;;;14.28;92.16
32733;BME280;11867;51.198;11.966;2023-09-30T05:50:37;101403.16;;;14.37;92.01
32733;BME280;11867;51.198;11.966;2023-09-30T05:52:00;101413.50;;;14.60;90.42
32733;BME280;11867;51.198;11.966;2023-09-30T05:53:24;101419.81;;;14.66;89.40
32733;BME280;11867;51.198;11.966;2023-09-30T05:54:47;101411.38;;;14.42;91.15
32733;BME280;11867;51.198;11.966;2023-09-30T05:56:10;101406.91;;;14.51;90.29
32733;BME280;11867;51.198;11.966;2023-09-30T05:57:34;101404.44;;;14.65;91.81
32733;BME280;11867;51.198;11.966;2023-09-30T05:58:58;101410.72;;;14.70;92.05
32733;BME280;11867;51.198;11.966;2023-09-30T06:00:20;101414.31;;;14.66;91.71
32733;BME280;11867;51.198;11.966;2023-09-30T06:01:44;101412.13;;;14.63;91.70
32733;BME280;11867;51.198;11.966;2023-09-30T06:03:08;101412.84;;;14.84;88.82
32733;BME280;11867;51.198;11.966;2023-09-30T06:04:32;101422.94;;;14.28;90.93
32733;BME280;11867;51.198;11.966;2023-09-30T06:05:55;101428.66;;;14.32;91.00
32733;BME280;11867;51.198;11.966;2023-09-30T06:07:19;101418.38;;;14.73;89.33
32733;BME280;11867;51.198;11.966;2023-09-30T06:08:42;101410.63;;;14.86;88.85
32733;BME280;11867;51.198;11.966;2023-09-30T06:10:08;101391.56;;;14.45;89.66
32733;BME280;11867;51.198;11.966;2023-09-30T06:11:31;101401.56;;;14.15;91.85
32733;BME280;11867;51.198;11.966;2023-09-30T06:12:56;101377.94;;;14.29;91.52
32733;BME280;11867;51.198;11.966;2023-09-30T06:14:19;101392.22;;;14.21;91.76
32733;BME280;11867;51.198;11.966;2023-09-30T06:15:42;101393.44;;;13.79;93.62
32733;BME280;11867;51.198;11.966;2023-09-30T06:17:05;101395.81;;;14.11;93.62
32733;BME280;11867;51.198;11.966;2023-09-30T06:18:29;101397.41;;;14.33;92.41
32733;BME280;11867;51.198;11.966;2023-09-30T06:19:51;101402.66;;;14.19;92.57
32733;BME280;11867;51.198;11.966;2023-09-30T06:21:14;101408.38;;;14.28;91.93
32733;BME280;11867;51.198;11.966;2023-09-30T06:22:36;101409.31;;;14.73;90.22
32733;BME280;11867;51.198;11.966;2023-09-30T06:23:59;101413.34;;;14.21;92.51
32733;BME280;11867;51.198;11.966;2023-09-30T06:25:22;101413.09;;;14.17;93.03
32733;BME280;11867;51.198;11.966;2023-09-30T06:26:46;101413.53;;;14.50;92.44
32733;BME280;11867;51.198;11.966;2023-09-30T06:28:12;101416.97;;;14.81;90.71
32733;BME280;11867;51.198;11.966;2023-09-30T06:29:35;101413.63;;;14.89;90.41
32733;BME280;11867;51.198;11.966;2023-09-30T06:31:02;101418.59;;;15.32;90.34
32733;BME280;11867;51.198;11.966;2023-09-30T06:32:24;101400.25;;;15.57;87.38
32733;BME280;11867;51.198;11.966;2023-09-30T06:33:48;101408.16;;;15.29;87.04
32733;BME280;11867;51.198;11.966;2023-09-30T06:35:10;101408.53;;;14.67;90.00
32733;BME280;11867;51.198;11.966;2023-09-30T06:36:34;101407.25;;;14.39;92.22
32733;BME280;11867;51.198;11.966;2023-09-30T06:37:56;101420.84;;;13.89;94.67
32733;BME280;11867;51.198;11.966;2023-09-30T06:39:19;101419.50;;;13.77;96.33
32733;BME280;11867;51.198;11.966;2023-09-30T06:40:41;101420.31;;;13.67;97.22
32733;BME280;11867;51.198;11.966;2023-09-30T06:42:04;101417.56;;;13.51;98.91
32733;BME280;11867;51.198;11.966;2023-09-30T06:43:28;101427.97;;;13.65;98.09
32733;BME280;11867;51.198;11.966;2023-09-30T06:44:52;101432.09;;;13.47;99.29
32733;BME280;11867;51.198;11.966;2023-09-30T06:46:14;101431.81;;;13.69;97.82
32733;BME280;11867;51.198;11.966;2023-09-30T06:47:39;101431.53;;;13.76;98.46
32733;BME280;11867;51.198;11.966;2023-09-30T06:49:04;101436.75;;;13.46;99.17
32733;BME280;11867;51.198;11.966;2023-09-30T06:50:27;101439.47;;;13.51;100.00
32733;BME280;11867;51.198;11.966;2023-09-30T06:51:49;101444.97;;;13.62;99.27
32733;BME280;11867;51.198;11.966;2023-09-30T06:53:12;101437.84;;;13.91;97.75
32733;BME280;11867;51.198;11.966;2023-09-30T06:54:37;101442.34;;;14.42;95.16
32733;BME280;11867;51.198;11.966;2023-09-30T06:55:59;101434.84;;;14.79;92.58
32733;BME280;11867;51.198;11.966;2023-09-30T06:57:24;101431.94;;;15.04;91.03
32733;BME280;11867;51.198;11.966;2023-09-30T06:58:48;101430.56;;;15.07;90.42
32733;BME280;11867;51.198;11.966;2023-09-30T07:00:12;101429.94;;;14.70;91.55
32733;BME280;11867;51.198;11.966;2023-09-30T07:01:35;101422.84;;;14.59;92.66
32733;BME280;11867;51.198;11.966;2023-09-30T07:02:59;101431.38;;;14.42;93.90
32733;BME280;11867;51.198;11.966;2023-09-30T07:04:21;101420.13;;;14.44;93.61
32733;BME280;11867;51.198;11.966;2023-09-30T07:05:45;101428.81;;;14.71;92.50
32733;BME280;11867;51.198;11.966;2023-09-30T07:07:11;101421.59;;;14.91;91.70
32733;BME280;11867;51.198;11.966;2023-09-30T07:08:34;101422.34;;;15.02;90.15
32733;BME280;11867;51.198;11.966;2023-09-30T07:09:57;101430.69;;;14.86;90.20